createdAt,value
2022-08-19T00:02:14.461Z,22.45
2022-08-19T00:04:43.447Z,22.51
2022-08-19T00:07:12.309Z,22.45
2022-08-19T00:09:41.321Z,22.40
2022-08-19T00:12:10.400Z,22.35
2022-08-19T00:14:40.296Z,22.29
2022-08-19T00:17:10.537Z,22.25
2022-08-19T00:19:41.675Z,22.15
2022-08-19T00:22:11.003Z,22.14
2022-08-19T00:24:42.089Z,22.11
2022-08-19T00:27:25.795Z,22.08
2022-08-19T00:29:55.691Z,22.08
2022-08-19T00:32:24.739Z,22.11
2022-08-19T00:34:57.210Z,21.96
2022-08-19T00:37:27.790Z,21.75
2022-08-19T00:39:57.399Z,22.10
2022-08-19T00:42:29.396Z,21.94
2022-08-19T00:44:58.268Z,22.06
2022-08-19T00:47:27.109Z,22.07
2022-08-19T00:50:00.733Z,22.07
2022-08-19T00:52:34.383Z,22.05
2022-08-19T00:55:06.056Z,22.03
2022-08-19T00:57:42.449Z,21.91
2022-08-19T01:00:16.849Z,22.03
2022-08-19T01:02:46.175Z,22.07
2022-08-19T01:05:22.634Z,22.09
2022-08-19T01:07:53.044Z,22.01
2022-08-19T01:10:27.184Z,22.09
2022-08-19T01:12:58.095Z,22.00
2022-08-19T01:15:32.234Z,22.12
2022-08-19T01:18:12.022Z,21.79
2022-08-19T01:20:44.661Z,22.17
2022-08-19T01:23:16.188Z,21.95
2022-08-19T01:25:51.125Z,22.15
2022-08-19T01:28:33.593Z,22.11
2022-08-19T01:31:26.751Z,22.09
2022-08-19T01:34:00.187Z,22.06
2022-08-19T01:36:33.775Z,21.92
2022-08-19T01:39:15.031Z,21.92
2022-08-19T01:41:43.962Z,21.75
2022-08-19T01:44:17.774Z,21.81
2022-08-19T01:46:50.615Z,21.55
2022-08-19T01:49:23.934Z,21.41
2022-08-19T01:51:53.244Z,21.65
2022-08-19T01:54:27.440Z,21.59
2022-08-19T01:57:02.366Z,21.50
2022-08-19T01:59:32.382Z,21.27
2022-08-19T02:02:01.329Z,21.35
2022-08-19T02:04:30.014Z,21.26
2022-08-19T02:07:00.334Z,21.21
2022-08-19T02:09:30.789Z,21.15
2022-08-19T02:11:59.563Z,21.04
2022-08-19T02:14:28.224Z,20.90
2022-08-19T02:16:57.418Z,21.08
2022-08-19T02:19:26.020Z,21.04
2022-08-19T02:21:54.663Z,20.99
2022-08-19T02:24:23.309Z,20.79
2022-08-19T02:26:53.716Z,20.82
2022-08-19T02:29:23.197Z,20.82
2022-08-19T02:31:52.798Z,20.80
2022-08-19T02:34:21.403Z,20.46
2022-08-19T02:36:51.918Z,20.61
2022-08-19T02:39:20.499Z,20.49
2022-08-19T02:41:49.974Z,20.41
2022-08-19T02:44:30.827Z,20.40
2022-08-19T02:47:01.238Z,20.36
2022-08-19T02:49:29.985Z,20.27
2022-08-19T02:52:04.219Z,20.20
2022-08-19T02:54:33.179Z,20.14
2022-08-19T02:57:02.013Z,20.09
2022-08-19T02:59:34.553Z,20.12
2022-08-19T03:02:03.643Z,20.12
2022-08-19T03:04:32.274Z,20.10
2022-08-19T03:07:10.738Z,20.12
2022-08-19T03:09:40.195Z,19.96
2022-08-19T03:12:09.184Z,20.14
2022-08-19T03:14:40.014Z,19.99
2022-08-19T03:17:09.123Z,20.14
2022-08-19T03:19:38.993Z,20.14
2022-08-19T03:22:09.005Z,20.16
2022-08-19T03:24:37.912Z,20.18
2022-08-19T03:27:06.972Z,20.14
2022-08-19T03:29:42.998Z,20.25
2022-08-19T03:32:29.702Z,20.27
2022-08-19T03:35:03.411Z,20.28
2022-08-19T03:37:32.051Z,20.28
2022-08-19T03:40:00.754Z,20.21
2022-08-19T03:42:45.453Z,20.33
2022-08-19T03:45:20.615Z,20.29
2022-08-19T03:47:49.345Z,20.28
2022-08-19T03:50:18.919Z,20.26
2022-08-19T03:52:52.483Z,20.13
2022-08-19T03:58:31.597Z,20.21
2022-08-19T04:01:03.778Z,20.21
2022-08-19T04:03:47.307Z,20.22
2022-08-19T04:06:22.467Z,20.25
2022-08-19T04:08:54.972Z,20.27
2022-08-19T04:11:43.499Z,20.25
2022-08-19T04:14:16.579Z,20.24
2022-08-19T04:16:47.372Z,20.25
2022-08-19T04:19:18.006Z,19.90
2022-08-19T04:21:50.181Z,20.29
2022-08-19T04:24:19.597Z,20.31
2022-08-19T04:26:49.036Z,20.36
2022-08-19T04:29:23.262Z,20.35
2022-08-19T04:31:59.586Z,20.35
2022-08-19T04:34:31.473Z,20.39
2022-08-19T04:37:01.226Z,20.43
2022-08-19T04:39:46.407Z,20.40
2022-08-19T04:42:33.079Z,20.47
2022-08-19T04:45:03.990Z,20.52
2022-08-19T04:47:47.930Z,20.49
2022-08-19T04:50:24.076Z,20.73
2022-08-19T04:52:54.446Z,20.78
2022-08-19T04:55:24.146Z,20.83
2022-08-19T04:57:52.721Z,20.93
2022-08-19T05:00:21.399Z,21.05
2022-08-19T05:02:51.727Z,21.14
2022-08-19T05:05:20.844Z,21.21
2022-08-19T05:07:49.953Z,21.28
2022-08-19T05:10:18.948Z,21.34
2022-08-19T05:12:47.554Z,21.38
2022-08-19T05:15:16.639Z,21.41
2022-08-19T05:18:05.362Z,21.26
2022-08-19T05:20:52.831Z,21.53
2022-08-19T05:23:22.894Z,21.62
2022-08-19T05:25:52.742Z,21.59
2022-08-19T05:28:22.568Z,21.80
2022-08-19T05:30:52.336Z,21.77
2022-08-19T05:33:21.504Z,21.78
2022-08-19T05:35:52.057Z,21.75
2022-08-19T05:38:21.188Z,21.91
2022-08-19T05:40:50.424Z,21.88
2022-08-19T05:43:19.357Z,21.74
2022-08-19T05:45:48.298Z,21.82
2022-08-19T05:48:21.627Z,21.84
2022-08-19T05:50:51.972Z,21.91
2022-08-19T05:53:21.295Z,22.05
2022-08-19T05:55:49.888Z,21.90
2022-08-19T05:58:18.476Z,22.20
2022-08-19T06:00:52.602Z,22.30
2022-08-19T06:03:21.413Z,22.47
2022-08-19T06:05:52.225Z,22.38
2022-08-19T06:08:34.329Z,22.79
2022-08-19T06:11:22.083Z,22.97
2022-08-19T06:13:59.496Z,22.92
2022-08-19T06:16:29.433Z,22.71
2022-08-19T06:19:01.285Z,23.11
2022-08-19T06:21:32.426Z,23.26
2022-08-19T06:24:01.670Z,23.16
2022-08-19T06:26:30.588Z,22.95
2022-08-19T06:28:59.478Z,22.82
2022-08-19T06:31:32.372Z,22.89
2022-08-19T06:34:03.095Z,22.88
2022-08-19T06:36:37.250Z,23.11
2022-08-19T06:39:09.558Z,23.25
2022-08-19T06:41:47.139Z,23.36
2022-08-19T06:44:21.597Z,23.54
2022-08-19T06:46:53.647Z,23.62
2022-08-19T06:49:24.372Z,23.92
2022-08-19T06:51:54.472Z,24.35
2022-08-19T06:54:24.132Z,24.80
2022-08-19T06:57:03.017Z,25.11
2022-08-19T06:59:34.139Z,25.38
2022-08-19T07:02:07.616Z,25.56
2022-08-19T07:04:39.416Z,25.62
2022-08-19T07:07:20.982Z,25.21
2022-08-19T07:09:59.035Z,24.91
2022-08-19T07:12:31.057Z,24.71
2022-08-19T07:15:00.235Z,24.60
2022-08-19T07:17:31.923Z,24.86
2022-08-19T07:20:05.444Z,24.84
2022-08-19T07:22:40.355Z,24.68
2022-08-19T07:25:12.008Z,24.60
2022-08-19T07:27:41.306Z,24.26
2022-08-19T07:30:17.059Z,24.09
2022-08-19T07:32:46.088Z,24.03
2022-08-19T07:35:14.658Z,23.99
2022-08-19T07:37:45.321Z,23.95
2022-08-19T07:40:15.235Z,23.84
2022-08-19T07:42:44.545Z,23.67
2022-08-19T07:45:13.841Z,23.66
2022-08-19T07:47:49.837Z,23.50
2022-08-19T07:50:21.085Z,23.17
2022-08-19T07:52:52.817Z,23.28
2022-08-19T07:55:40.525Z,23.41
2022-08-19T07:58:13.109Z,23.30
2022-08-19T08:00:42.785Z,23.42
2022-08-19T08:03:12.099Z,23.32
2022-08-19T08:05:58.754Z,23.23
2022-08-19T08:08:48.441Z,22.87
2022-08-19T08:11:20.053Z,23.12
2022-08-19T08:14:00.800Z,23.10
2022-08-19T08:16:32.469Z,23.13
2022-08-19T08:19:02.438Z,23.01
2022-08-19T08:21:36.727Z,23.03
2022-08-19T08:24:07.215Z,22.55
2022-08-19T08:26:35.976Z,23.34
2022-08-19T08:29:12.288Z,23.40
2022-08-19T08:31:43.464Z,23.09
2022-08-19T08:34:14.634Z,22.83
2022-08-19T08:36:47.450Z,23.24
2022-08-19T08:39:21.601Z,23.29
2022-08-19T08:42:17.664Z,23.00
2022-08-19T08:45:00.425Z,22.82
2022-08-19T08:47:42.790Z,23.24
2022-08-19T08:50:20.707Z,23.43
2022-08-19T08:52:54.634Z,23.28
2022-08-19T08:55:36.969Z,23.38
2022-08-19T08:58:15.011Z,23.74
2022-08-19T09:00:48.217Z,24.13
2022-08-19T09:03:23.192Z,24.16
2022-08-19T09:06:03.190Z,24.87
2022-08-19T09:08:49.685Z,24.67
2022-08-19T09:11:42.424Z,24.96
2022-08-19T09:14:49.816Z,25.26
2022-08-19T09:17:29.201Z,25.56
2022-08-19T09:20:05.641Z,25.59
2022-08-19T09:22:34.729Z,25.87
2022-08-19T09:25:04.261Z,26.33
2022-08-19T09:27:42.423Z,26.49
2022-08-19T09:30:17.558Z,26.19
2022-08-19T09:32:47.251Z,25.80
2022-08-19T09:35:23.728Z,25.78
2022-08-19T09:37:57.815Z,25.73
2022-08-19T09:40:30.082Z,25.62
2022-08-19T09:43:12.905Z,25.49
2022-08-19T09:45:42.499Z,25.31
2022-08-19T09:48:11.907Z,25.20
2022-08-19T09:50:51.653Z,25.14
2022-08-19T09:53:25.419Z,25.25
2022-08-19T09:55:56.752Z,25.30
2022-08-19T09:58:28.879Z,25.18
2022-08-19T10:00:57.846Z,24.89
2022-08-19T10:03:29.960Z,24.86
2022-08-19T10:06:01.169Z,24.72
2022-08-19T10:08:35.441Z,24.94
2022-08-19T10:11:28.449Z,24.98
2022-08-19T10:13:56.937Z,24.71
2022-08-19T10:16:30.332Z,24.83
2022-08-19T10:19:00.289Z,24.82
2022-08-19T10:21:35.361Z,24.93
2022-08-19T10:24:09.421Z,25.00
2022-08-19T10:26:43.041Z,25.07
2022-08-19T10:29:13.584Z,25.14
2022-08-19T10:32:03.143Z,25.08
2022-08-19T10:34:32.999Z,25.41
2022-08-19T10:37:02.521Z,25.37
2022-08-19T10:39:42.989Z,24.34
2022-08-19T10:42:14.425Z,24.98
2022-08-19T10:44:44.875Z,25.02
2022-08-19T10:47:17.631Z,25.26
2022-08-19T10:50:13.158Z,25.31
2022-08-19T10:52:49.716Z,25.16
2022-08-19T10:55:39.211Z,24.95
2022-08-19T10:58:14.317Z,24.89
2022-08-19T11:00:45.172Z,24.74
2022-08-19T11:03:14.303Z,25.00
2022-08-19T11:05:43.003Z,25.03
2022-08-19T11:08:23.323Z,24.96
2022-08-19T11:10:59.169Z,24.97
2022-08-19T11:13:28.235Z,25.19
2022-08-19T11:16:07.660Z,25.30
2022-08-19T11:18:41.877Z,24.95
2022-08-19T11:21:18.015Z,25.60
2022-08-19T11:23:48.749Z,25.57
2022-08-19T11:26:19.231Z,25.50
2022-08-19T11:28:48.832Z,25.46
2022-08-19T11:31:22.753Z,25.43
2022-08-19T11:33:54.852Z,25.35
2022-08-19T11:36:25.159Z,25.08
2022-08-19T11:38:54.505Z,25.12
2022-08-19T11:41:25.679Z,25.06
2022-08-19T11:43:56.090Z,25.04
2022-08-19T11:46:30.493Z,24.97
2022-08-19T11:49:00.094Z,24.89
2022-08-19T11:51:29.922Z,24.79
2022-08-19T11:54:01.529Z,24.46
2022-08-19T11:56:30.648Z,24.81
2022-08-19T11:59:00.136Z,24.89
2022-08-19T12:01:30.683Z,24.95
2022-08-19T12:04:00.097Z,24.98
2022-08-19T12:06:35.109Z,25.03
2022-08-19T12:09:08.393Z,25.02
2022-08-19T12:11:37.960Z,24.98
2022-08-19T12:14:07.237Z,24.75
2022-08-19T12:16:42.253Z,24.73
2022-08-19T12:19:21.734Z,24.61
2022-08-19T12:21:52.364Z,24.26
2022-08-19T12:24:24.334Z,23.86
2022-08-19T12:26:54.511Z,24.34
2022-08-19T12:29:30.753Z,24.29
2022-08-19T12:32:03.855Z,24.41
2022-08-19T12:34:34.404Z,24.42
2022-08-19T12:37:07.155Z,24.43
2022-08-19T12:39:42.470Z,24.66
2022-08-19T12:42:12.816Z,24.66
2022-08-19T12:44:44.052Z,25.00
2022-08-19T12:47:19.645Z,23.79
2022-08-19T12:49:54.713Z,25.06
2022-08-19T12:52:26.282Z,24.72
2022-08-19T12:55:03.314Z,24.80
2022-08-19T12:57:34.231Z,24.23
2022-08-19T13:00:10.378Z,24.59
2022-08-19T13:02:41.796Z,24.58
2022-08-19T13:05:13.789Z,24.61
2022-08-19T13:07:44.970Z,24.66
2022-08-19T13:10:18.502Z,23.29
2022-08-19T13:12:50.279Z,24.55
2022-08-19T13:15:24.086Z,24.95
2022-08-19T13:17:57.127Z,25.08
2022-08-19T13:20:28.015Z,25.56
2022-08-19T13:22:58.323Z,25.84
2022-08-19T13:25:27.678Z,26.05
2022-08-19T13:27:57.097Z,26.07
2022-08-19T13:30:43.565Z,26.32
2022-08-19T13:33:16.153Z,26.44
2022-08-19T13:35:50.521Z,26.48
2022-08-19T13:38:24.055Z,26.71
2022-08-19T13:40:55.312Z,25.56
2022-08-19T13:43:28.741Z,26.77
2022-08-19T13:45:58.296Z,27.04
2022-08-19T13:48:29.169Z,27.01
2022-08-19T13:51:19.410Z,26.63
2022-08-19T13:53:48.402Z,25.93
2022-08-19T13:56:25.421Z,25.31
2022-08-19T13:58:55.540Z,25.14
2022-08-19T14:01:29.175Z,24.94
2022-08-19T14:04:00.164Z,24.81
2022-08-19T14:06:29.980Z,24.98
2022-08-19T14:08:58.744Z,25.09
2022-08-19T14:11:28.446Z,25.03
2022-08-19T14:13:57.181Z,24.93
2022-08-19T14:16:31.936Z,25.04
2022-08-19T14:19:06.288Z,24.94
2022-08-19T14:22:06.357Z,24.41
2022-08-19T14:24:35.727Z,24.57
2022-08-19T14:27:04.854Z,24.26
2022-08-19T14:29:34.390Z,24.11
2022-08-19T14:32:03.699Z,24.12
2022-08-19T14:34:34.882Z,24.00
2022-08-19T14:37:03.914Z,23.97
2022-08-19T14:39:32.993Z,23.81
2022-08-19T14:42:02.603Z,23.93
2022-08-19T14:44:34.878Z,23.77
2022-08-19T14:47:04.298Z,23.90
2022-08-19T14:49:34.975Z,23.82
2022-08-19T14:52:10.762Z,23.86
2022-08-19T14:54:42.064Z,23.83
2022-08-19T14:57:16.081Z,23.93
2022-08-19T14:59:45.309Z,23.84
2022-08-19T15:02:33.824Z,23.75
2022-08-19T15:05:04.963Z,23.70
2022-08-19T15:07:33.869Z,23.61
2022-08-19T15:10:02.733Z,23.66
2022-08-19T15:12:31.510Z,23.73
2022-08-19T15:15:00.390Z,23.83
2022-08-19T15:17:43.475Z,23.99
2022-08-19T15:20:19.927Z,24.27
2022-08-19T15:22:49.362Z,24.26
2022-08-19T15:25:21.321Z,23.97
2022-08-19T15:27:51.285Z,24.03
2022-08-19T15:30:25.020Z,23.78
2022-08-19T15:32:55.828Z,23.90
2022-08-19T15:35:26.563Z,23.82
2022-08-19T15:37:56.627Z,23.69
2022-08-19T15:40:28.187Z,23.25
2022-08-19T15:42:58.863Z,23.44
2022-08-19T15:45:32.920Z,23.40
2022-08-19T15:48:02.940Z,23.48
2022-08-19T15:50:33.620Z,23.42
2022-08-19T15:53:05.028Z,23.55
2022-08-19T15:55:38.221Z,23.60
2022-08-19T15:58:44.861Z,23.50
2022-08-19T16:01:42.685Z,23.39
2022-08-19T16:04:29.917Z,23.35
2022-08-19T16:07:03.501Z,23.56
2022-08-19T16:09:34.916Z,23.54
2022-08-19T16:12:07.037Z,23.63
2022-08-19T16:14:38.216Z,23.48
2022-08-19T16:17:07.110Z,23.54
2022-08-19T16:19:35.703Z,23.57
2022-08-19T16:22:07.190Z,23.92
2022-08-19T16:24:35.882Z,23.81
2022-08-19T16:27:05.257Z,23.62
2022-08-19T16:29:39.348Z,23.62
2022-08-19T16:32:12.707Z,23.55
2022-08-19T16:34:42.646Z,23.39
2022-08-19T16:37:13.046Z,23.29
2022-08-19T16:39:43.754Z,22.97
2022-08-19T16:42:14.104Z,23.28
2022-08-19T16:44:46.609Z,23.26
2022-08-19T16:47:17.105Z,22.95
2022-08-19T16:49:54.644Z,23.21
2022-08-19T16:52:26.372Z,23.14
2022-08-19T16:54:55.836Z,22.98
2022-08-19T16:57:25.047Z,22.81
2022-08-19T16:59:53.970Z,23.09
2022-08-19T17:02:25.597Z,22.76
2022-08-19T17:04:59.284Z,22.73
2022-08-19T17:07:33.167Z,22.99
2022-08-19T17:10:04.031Z,22.77
2022-08-19T17:12:32.717Z,22.82
2022-08-19T17:15:03.416Z,22.77
2022-08-19T17:17:33.186Z,22.75
2022-08-19T17:20:03.474Z,22.67
2022-08-19T17:22:35.815Z,22.28
2022-08-19T17:25:05.787Z,22.49
2022-08-19T17:27:34.699Z,22.45
2022-08-19T17:30:03.904Z,22.46
2022-08-19T17:32:35.024Z,22.39
2022-08-19T17:35:04.838Z,22.40
2022-08-19T17:37:37.270Z,22.28
2022-08-19T17:40:09.329Z,22.18
2022-08-19T17:42:38.629Z,21.66
2022-08-19T17:45:11.476Z,22.15
2022-08-19T17:47:41.797Z,22.16
2022-08-19T17:50:13.176Z,22.05
2022-08-19T17:52:44.097Z,22.00
2022-08-19T17:55:13.170Z,22.06
2022-08-19T17:57:46.529Z,22.01
2022-08-19T18:00:18.473Z,21.98
2022-08-19T18:02:50.612Z,21.69
2022-08-19T18:05:23.646Z,21.84
2022-08-19T18:07:55.071Z,21.82
2022-08-19T18:10:32.054Z,21.72
2022-08-19T18:13:17.749Z,21.83
2022-08-19T18:15:47.479Z,21.81
2022-08-19T18:18:16.353Z,21.82
2022-08-19T18:20:46.209Z,21.72
2022-08-19T18:23:44.598Z,21.76
2022-08-19T18:26:05.838Z,21.38
2022-08-19T18:28:35.123Z,21.36
2022-08-19T18:31:04.785Z,21.73
2022-08-19T18:33:34.559Z,21.75
2022-08-19T18:36:13.387Z,21.76
2022-08-19T18:39:06.380Z,21.71
2022-08-19T18:41:54.395Z,21.56
2022-08-19T18:44:40.552Z,21.69
2022-08-19T18:47:26.774Z,21.70
2022-08-19T18:49:55.690Z,21.72
2022-08-19T18:52:27.266Z,21.72
2022-08-19T18:54:59.454Z,21.55
2022-08-19T18:57:28.193Z,21.64
2022-08-19T18:59:57.775Z,21.74
2022-08-19T19:02:27.746Z,21.73
2022-08-19T19:04:56.391Z,21.72
2022-08-19T19:07:29.473Z,21.52
2022-08-19T19:09:59.439Z,21.71
2022-08-19T19:12:29.734Z,21.71
2022-08-19T19:14:58.831Z,21.69
2022-08-19T19:17:28.417Z,21.70
2022-08-19T19:19:57.177Z,21.72
2022-08-19T19:22:26.334Z,21.69
2022-08-19T19:24:55.589Z,21.46
2022-08-19T19:27:26.666Z,21.72
2022-08-19T19:29:55.811Z,21.70
2022-08-19T19:32:29.475Z,21.73
2022-08-19T19:34:59.616Z,21.73
2022-08-19T19:37:28.609Z,21.68
2022-08-19T19:39:57.455Z,21.69
2022-08-19T19:42:27.870Z,21.67
2022-08-19T19:44:57.538Z,21.26
2022-08-19T19:47:30.449Z,21.68
2022-08-19T19:50:16.021Z,21.67
2022-08-19T19:52:47.038Z,21.66
2022-08-19T19:55:18.990Z,21.68
2022-08-19T19:57:50.086Z,21.70
2022-08-19T20:00:20.883Z,21.70
2022-08-19T20:02:53.586Z,21.61
2022-08-19T20:05:24.054Z,21.60
2022-08-19T20:08:25.627Z,21.64
2022-08-19T20:10:54.442Z,21.53
2022-08-19T20:13:24.783Z,21.39
2022-08-19T20:15:53.825Z,21.56
2022-08-19T20:18:22.535Z,21.42
2022-08-19T20:20:51.954Z,21.57
2022-08-19T20:23:23.874Z,21.50
2022-08-19T20:25:52.853Z,21.16
2022-08-19T20:28:23.137Z,21.46
2022-08-19T20:30:53.362Z,21.23
2022-08-19T20:33:22.248Z,21.48
2022-08-19T20:35:51.067Z,21.45
2022-08-19T20:38:19.958Z,21.48
2022-08-19T20:40:48.688Z,21.36
2022-08-19T20:43:17.553Z,21.46
2022-08-19T20:45:47.158Z,20.66
2022-08-19T20:48:17.177Z,21.31
2022-08-19T20:50:46.132Z,21.36
2022-08-19T20:53:17.394Z,21.21
2022-08-19T20:55:49.292Z,21.40
2022-08-19T20:58:21.269Z,21.52
2022-08-19T21:00:51.694Z,21.46
2022-08-19T21:03:28.962Z,21.42
2022-08-19T21:05:58.922Z,21.34
2022-08-19T21:08:28.784Z,21.07
2022-08-19T21:11:20.751Z,21.38
2022-08-19T21:13:49.734Z,21.41
2022-08-19T21:16:18.462Z,21.43
2022-08-19T21:18:49.025Z,21.43
2022-08-19T21:21:18.035Z,21.48
2022-08-19T21:23:46.907Z,21.43
2022-08-19T21:26:15.814Z,21.41
2022-08-19T21:28:44.381Z,21.39
2022-08-19T21:31:15.195Z,21.39
2022-08-19T21:33:44.145Z,21.21
2022-08-19T21:36:14.087Z,21.44
2022-08-19T21:38:42.699Z,21.43
2022-08-19T21:41:12.128Z,21.38
2022-08-19T21:43:41.657Z,21.31
2022-08-19T21:46:10.727Z,21.37
2022-08-19T21:48:39.856Z,21.37
2022-08-19T21:51:08.971Z,21.36
2022-08-19T21:53:39.298Z,21.34
2022-08-19T21:56:09.062Z,21.34
2022-08-19T21:58:38.361Z,21.34
2022-08-19T22:01:08.264Z,21.33
2022-08-19T22:03:38.948Z,21.34
2022-08-19T22:06:08.491Z,21.34
2022-08-19T22:08:38.975Z,21.34
2022-08-19T22:11:07.595Z,21.08
2022-08-19T22:13:39.926Z,21.06
2022-08-19T22:16:10.701Z,21.28
2022-08-19T22:18:44.432Z,21.29
2022-08-19T22:21:13.546Z,21.29
2022-08-19T22:23:44.614Z,21.06
2022-08-19T22:26:14.523Z,21.28
2022-08-19T22:28:44.445Z,21.27
2022-08-19T22:31:13.996Z,21.27
2022-08-19T22:33:43.781Z,21.35
2022-08-19T22:36:12.738Z,21.19
2022-08-19T22:38:43.911Z,21.15
2022-08-19T22:41:12.820Z,21.12
2022-08-19T22:43:41.670Z,21.14
2022-08-19T22:46:15.093Z,21.13
2022-08-19T22:48:47.884Z,20.96
2022-08-19T22:51:42.333Z,21.02
2022-08-19T22:54:12.630Z,21.03
2022-08-19T22:56:41.543Z,21.06
2022-08-19T22:59:10.855Z,21.07
2022-08-19T23:01:41.860Z,21.04
2022-08-19T23:04:10.580Z,20.96
2022-08-19T23:06:41.998Z,20.92
2022-08-19T23:09:16.761Z,19.98
2022-08-19T23:11:46.481Z,21.08
2022-08-19T23:14:17.681Z,21.00
2022-08-19T23:16:50.983Z,20.93
2022-08-19T23:19:21.460Z,21.09
2022-08-19T23:21:52.685Z,21.10
2022-08-19T23:24:22.923Z,21.10
2022-08-19T23:27:09.613Z,21.04
2022-08-19T23:29:55.712Z,21.04
2022-08-19T23:32:25.552Z,20.91
2022-08-19T23:34:57.221Z,20.70
2022-08-19T23:37:28.359Z,20.91
2022-08-19T23:39:58.485Z,21.04
2022-08-19T23:42:27.376Z,21.02
2022-08-19T23:45:03.915Z,20.92
2022-08-19T23:47:34.445Z,20.97
2022-08-19T23:50:06.410Z,20.97
2022-08-19T23:52:43.052Z,19.89
2022-08-19T23:55:14.395Z,20.80
2022-08-19T23:57:43.037Z,20.86
